Time;durP1;ratioP1;P1;durP2;ratioP2;P2;SDS_P1;SDS_P2;PMS_P1;PMS_P2;Temp;Humidity;BMP_temperature;BMP_pressure;BME280_temperature;BME280_humidity;BME280_pressure;Samples;Min_cycle;Max_cycle;Signal;HPM_P1;HPM_P2
2023/03/27 00:02:14;;;;;;;;;;;;;;;;;;;;;
2023/03/27 00:05:26;;;;;;;;;;;;;;;;;;;;;
2023/03/27 00:09:03;;;;;;;;;;;;;;;;;;;;;
2023/03/27 00:12:34;;;;;;;;;;;;;;;;;;;;;
2023/03/27 00:15:50;;;;;;;;;;;;;;;6.20;81.91;98694.17;134298;1297;23061;-83
2023/03/27 00:18:52;;;;;;;;;;;;;;;6.16;81.68;98689.56;134210;1297;22451;-83
2023/03/27 00:21:56;;;;;;;;;;;;;;;6.12;81.70;98688.43;134302;1298;23317;-83
2023/03/27 00:25:09;;;;;;;;;;;;;;;6.09;81.74;98680.75;134269;1301;22437;-84
2023/03/27 00:28:10;;;;;;;;;;;;;;;6.07;81.82;98674.96;134267;1297;22668;-84
2023/03/27 00:31:13;;;;;;;;;;;;;;;6.05;81.75;98668.55;134216;1301;23231;-83
2023/03/27 00:34:13;;;;;;;;;;;;;;;6.01;81.88;98664.40;134041;1298;22565;-83
2023/03/27 00:37:19;;;;;;;;;;;;;;;5.97;82.18;98657.70;134306;1297;22537;-84
2023/03/27 00:40:24;;;;;;;;;;;;;;;5.97;82.19;98658.52;134154;1297;22475;-83
2023/03/27 00:43:45;;;;;;;;;;;;;;;5.96;82.04;98656.88;134285;1295;22458;-84
2023/03/27 00:46:45;;;;;;;;;;;;;;;5.94;82.05;98660.77;134270;1297;22449;-84
2023/03/27 00:50:02;;;;;;;;;;;;;;;5.92;82.05;98659.74;134268;1297;23284;-83
2023/03/27 00:53:08;;;;;;;;;;;;;;;5.91;81.92;98660.80;134306;1298;22478;-83
2023/03/27 00:56:32;;;;;;;;;;;;;;;5.87;82.03;98663.31;134297;1296;22807;-83
2023/03/27 00:59:42;;;;;;;;;;;;;;;5.83;82.01;98670.80;134285;1299;22449;-83
2023/03/27 01:02:54;;;;;;;;;;;;;;;5.82;82.16;98669.16;134287;1297;22513;-83
2023/03/27 01:06:19;;;;;;;;;;;;;;;;;;;;;
2023/03/27 01:09:20;;;;;;;;;;;;;;;5.77;82.06;98668.23;134165;1295;22468;-83
2023/03/27 01:13:26;;;;;;;;;;;;;;;;;;;;;
2023/03/27 01:17:37;;;;;;;;;;;;;;;5.70;82.04;98668.69;134284;1297;22438;-83
2023/03/27 01:21:04;;;;;;;;;;;;;;;;;;;;;
2023/03/27 01:28:43;;;;;;;;;;;;;;;5.60;82.59;98665.20;134228;1297;23155;-87
2023/03/27 01:33:08;;;;;;;;;;;;;;;5.61;82.50;98660.63;134290;1297;22441;-83
2023/03/27 01:36:10;;;;;;;;;;;;;;;5.64;82.50;98656.65;134211;1298;23195;-84
2023/03/27 01:39:51;;;;;;;;;;;;;;;;;;;;;
2023/03/27 01:43:31;;;;;;;;;;;;;;;;;;;;;
2023/03/27 01:46:40;;;;;;;;;;;;;;;5.65;82.50;98658.28;134094;1297;22478;-84
2023/03/27 01:50:16;;;;;;;;;;;;;;;;;;;;;
2023/03/27 01:53:59;;;;;;;;;;;;;;;;;;;;;
2023/03/27 01:57:34;;;;;;;;;;;;;;;5.66;82.71;98661.66;134273;1298;22553;-84
2023/03/27 02:00:41;;;;;;;;;;;;;;;5.64;82.68;98659.90;133780;1298;23152;-84
2023/03/27 02:04:55;;;;;;;;;;;;;;;5.65;82.96;98661.56;134155;1297;22433;-84
2023/03/27 02:08:22;;;;;;;;;;;;;;;;;;;;;
2023/03/27 02:12:10;;;;;;;;;;;;;;;;;;;;;
2023/03/27 02:15:17;;;;;;;;;;;;;;;5.58;83.07;98654.63;134276;1296;23198;-84
2023/03/27 02:18:30;;;;;;;;;;;;;;;5.56;83.39;98652.39;134185;1298;22434;-83
2023/03/27 02:21:40;;;;;;;;;;;;;;;5.52;83.65;98660.49;134284;1298;22452;-84
2023/03/27 02:29:03;;;;;;;;;;;;;;;;;;;;;
2023/03/27 02:32:28;;;;;;;;;;;;;;;5.52;83.62;98666.88;130254;1296;5355244;-84
2023/03/27 02:40:22;;;;;;;;;;;;;;;5.53;83.60;98666.90;133750;1298;22451;-83
2023/03/27 02:44:01;;;;;;;;;;;;;;;5.52;83.76;98670.33;134270;1297;22441;-84
2023/03/27 02:47:50;;;;;;;;;;;;;;;5.49;83.87;98674.35;133635;1303;25549;-83
2023/03/27 02:50:59;;;;;;;;;;;;;;;5.46;83.68;98676.83;133547;1301;22488;-83
2023/03/27 02:54:49;;;;;;;;;;;;;;;5.43;84.11;98683.35;133491;1302;22481;-83
2023/03/27 02:57:40;;;;;;;;;;;;;;;5.40;84.15;98688.15;133676;1301;23228;-83
2023/03/27 03:01:29;;;;;;;;;;;;;;;5.37;83.85;98694.44;133305;1303;22486;-84
2023/03/27 03:04:55;;;;;;;;;;;;;;;5.34;83.80;98705.77;133712;1302;23306;-84
2023/03/27 03:08:03;;;;;;;;;;;;;;;5.34;83.77;98708.38;133668;1300;22483;-84
2023/03/27 03:11:15;;;;;;;;;;;;;;;5.33;83.91;98715.40;133819;1301;22482;-84
2023/03/27 03:14:21;;;;;;;;;;;;;;;5.31;83.96;98720.03;134079;1298;22467;-83
2023/03/27 03:17:25;;;;;;;;;;;;;;;5.29;83.89;98725.95;134244;1298;22458;-83
2023/03/27 03:20:48;;;;;;;;;;;;;;;;;;;;;
2023/03/27 03:24:01;;;;;;;;;;;;;;;5.23;84.03;98736.32;134299;1292;22431;-83
2023/03/27 03:27:24;;;;;;;;;;;;;;;5.22;83.94;98741.16;134236;1301;23482;-83
2023/03/27 03:30:57;;;;;;;;;;;;;;;5.21;84.27;98741.81;134243;1304;22487;-83
2023/03/27 03:34:15;;;;;;;;;;;;;;;5.19;84.12;98752.67;134241;1301;22531;-83
2023/03/27 03:37:28;;;;;;;;;;;;;;;5.18;84.34;98756.45;134215;1298;22441;-84
2023/03/27 03:40:31;;;;;;;;;;;;;;;5.12;84.30;98756.64;134058;1301;22482;-84
2023/03/27 03:43:32;;;;;;;;;;;;;;;5.04;84.35;98765.33;133980;1305;24308;-83
2023/03/27 03:46:35;;;;;;;;;;;;;;;4.96;84.08;98769.33;134066;1298;22520;-83
2023/03/27 03:49:46;;;;;;;;;;;;;;;;;;;;;
2023/03/27 03:53:01;;;;;;;;;;;;;;;;;;;;;
2023/03/27 03:56:22;;;;;;;;;;;;;;;4.74;83.86;98786.25;134165;1304;22471;-83
2023/03/27 03:59:58;;;;;;;;;;;;;;;;;;;;;
2023/03/27 04:03:19;;;;;;;;;;;;;;;4.58;83.54;98791.25;134162;1301;23684;-83
2023/03/27 04:06:35;;;;;;;;;;;;;;;;;;;;;
2023/03/27 04:09:41;;;;;;;;;;;;;;;4.43;82.71;98797.15;134060;1299;22831;-84
2023/03/27 04:12:58;;;;;;;;;;;;;;;4.32;82.24;98804.46;134063;1301;22566;-84
2023/03/27 04:16:25;;;;;;;;;;;;;;;4.21;81.52;98814.33;134113;1298;22447;-83
2023/03/27 04:19:48;;;;;;;;;;;;;;;4.11;81.48;98821.02;134103;1298;22539;-84
2023/03/27 04:22:51;;;;;;;;;;;;;;;4.06;81.41;98826.40;133969;1299;22461;-84
2023/03/27 04:25:58;;;;;;;;;;;;;;;4.02;81.57;98829.56;134157;1298;22459;-84
2023/03/27 04:29:09;;;;;;;;;;;;;;;3.99;82.20;98833.95;134128;1298;22441;-85
2023/03/27 04:32:29;;;;;;;;;;;;;;;3.93;82.31;98832.60;134149;1299;22434;-85
2023/03/27 04:35:51;;;;;;;;;;;;;;;3.80;82.05;98840.04;134152;1298;22442;-84
2023/03/27 04:39:03;;;;;;;;;;;;;;;3.70;82.04;98852.80;134135;1298;22557;-85
2023/03/27 04:42:05;;;;;;;;;;;;;;;3.58;82.07;98851.34;134101;1304;22457;-82
2023/03/27 04:45:08;;;;;;;;;;;;;;;3.46;82.20;98854.84;134127;1298;22434;-81
2023/03/27 04:48:12;;;;;;;;;;;;;;;3.36;82.35;98860.16;134121;1302;22461;-88
2023/03/27 04:51:15;;;;;;;;;;;;;;;3.24;82.45;98860.87;134292;1298;22435;-85
2023/03/27 04:55:07;;;;;;;;;;;;;;;3.08;82.61;98865.14;134247;1297;22478;-85
2023/03/27 04:58:24;;;;;;;;;;;;;;;2.94;82.98;98879.59;134156;1301;22472;-88
2023/03/27 05:01:42;;;;;;;;;;;;;;;;;;;;;
2023/03/27 05:05:14;;;;;;;;;;;;;;;2.68;83.21;98894.14;134176;1297;23297;-90
2023/03/27 05:08:52;;;;;;;;;;;;;;;;;;;;;
2023/03/27 05:12:15;;;;;;;;;;;;;;;2.54;83.76;98911.55;134011;1301;23398;-84
2023/03/27 05:15:57;;;;;;;;;;;;;;;;;;;;;
2023/03/27 05:19:31;;;;;;;;;;;;;;;;;;;;;
2023/03/27 05:22:36;;;;;;;;;;;;;;;2.33;84.27;98941.15;133910;1298;22499;-84
2023/03/27 05:25:44;;;;;;;;;;;;;;;2.24;84.09;98952.09;133963;1304;22509;-84
2023/03/27 05:28:50;;;;;;;;;;;;;;;2.19;84.36;98953.23;134048;1304;23203;-84
2023/03/27 05:31:51;;;;;;;;;;;;;;;2.06;84.72;98953.70;134102;1302;23247;-84
2023/03/27 05:35:33;;;;;;;;;;;;;;;1.93;84.56;98965.86;134186;1297;23205;-84
2023/03/27 05:38:57;;;;;;;;;;;;;;;1.88;84.82;98971.79;134050;1301;23220;-84
2023/03/27 05:42:07;;;;;;;;;;;;;;;1.80;85.15;98980.30;134075;1299;22474;-84
2023/03/27 05:45:09;;;;;;;;;;;;;;;1.74;85.73;98986.61;134286;1298;22439;-84
2023/03/27 05:48:12;;;;;;;;;;;;;;;1.64;85.56;98991.86;134043;1299;23245;-83
2023/03/27 05:51:14;;;;;;;;;;;;;;;1.58;85.25;98999.08;134276;1296;22433;-84
2023/03/27 05:54:16;;;;;;;;;;;;;;;1.52;85.51;99006.20;134277;1296;22444;-83
2023/03/27 05:58:08;;;;;;;;;;;;;;;;;;;;;
2023/03/27 06:01:29;;;;;;;;;;;;;;;1.45;85.61;99024.38;134036;1304;22478;-83
2023/03/27 06:04:43;;;;;;;;;;;;;;;1.42;85.96;99035.88;134082;1298;22566;-83
2023/03/27 06:12:11;;;;;;;;;;;;;;;1.30;85.97;99049.94;133961;1298;22485;-84
2023/03/27 06:15:33;;;;;;;;;;;;;;;1.20;85.93;99054.86;134253;1297;22482;-82
2023/03/27 06:19:35;;;;;;;;;;;;;;;1.11;86.20;99068.50;133834;1302;22468;-83
2023/03/27 06:23:26;;;;;;;;;;;;;;;;;;;;;
2023/03/27 06:26:32;;;;;;;;;;;;;;;0.92;85.89;99095.07;133949;1298;23210;-81
2023/03/27 06:30:16;;;;;;;;;;;;;;;;;;;;;
2023/03/27 06:33:40;;;;;;;;;;;;;;;0.60;85.80;99117.73;134113;1298;22521;-81
2023/03/27 06:36:49;;;;;;;;;;;;;;;0.46;86.12;99127.77;134060;1298;22480;-80
2023/03/27 06:39:53;;;;;;;;;;;;;;;0.39;86.23;99139.67;134008;1298;22557;-81
2023/03/27 06:42:55;;;;;;;;;;;;;;;0.33;86.98;99147.12;134127;1297;22643;-81
2023/03/27 06:46:10;;;;;;;;;;;;;;;0.29;87.02;99158.39;134027;1298;22435;-82
2023/03/27 06:49:46;;;;;;;;;;;;;;;0.24;87.61;99162.64;134114;1299;22458;-82
2023/03/27 06:52:52;;;;;;;;;;;;;;;0.20;87.44;99176.32;134023;1301;23123;-82
2023/03/27 06:56:25;;;;;;;;;;;;;;;;;;;;;
2023/03/27 07:00:10;;;;;;;;;;;;;;;0.16;87.34;99187.04;133234;1303;22795;-84
2023/03/27 07:04:06;;;;;;;;;;;;;;;0.14;87.46;99195.92;133180;1305;22534;-84
2023/03/27 07:08:10;;;;;;;;;;;;;;;0.16;87.38;99199.29;134104;1304;22495;-83
2023/03/27 07:11:28;;;;;;;;;;;;;;;0.20;87.40;99200.90;134141;1298;22514;-84
2023/03/27 07:19:08;;;;;;;;;;;;;;;0.32;87.63;99213.67;134133;1297;22482;-86
2023/03/27 07:22:08;;;;;;;;;;;;;;;0.39;87.42;99214.46;133944;1298;22479;-85
2023/03/27 07:26:00;;;;;;;;;;;;;;;;;;;;;
2023/03/27 07:30:26;;;;;;;;;;;;;;;;;;;;;
2023/03/27 07:33:38;;;;;;;;;;;;;;;0.70;86.73;99231.63;133925;1298;22608;-85
2023/03/27 07:36:42;;;;;;;;;;;;;;;0.78;86.30;99236.35;134122;1298;22560;-85
2023/03/27 07:39:44;;;;;;;;;;;;;;;0.84;85.74;99250.44;134171;1298;22537;-85
2023/03/27 07:42:47;;;;;;;;;;;;;;;0.89;84.78;99248.85;133975;1298;23224;-85
2023/03/27 07:45:57;;;;;;;;;;;;;;;0.92;84.10;99256.27;134059;1297;22543;-85
2023/03/27 07:48:58;;;;;;;;;;;;;;;0.97;84.29;99254.79;134161;1298;22515;-85
2023/03/27 07:52:26;;;;;;;;;;;;;;;;;;;;;
2023/03/27 07:56:13;;;;;;;;;;;;;;;1.09;83.79;99268.09;134028;1299;23723;-86
2023/03/27 07:59:17;;;;;;;;;;;;;;;1.10;83.22;99269.41;134048;1298;23241;-85
2023/03/27 08:02:17;;;;;;;;;;;;;;;1.10;82.38;99275.49;134036;1300;22430;-85
2023/03/27 08:05:21;;;;;;;;;;;;;;;1.09;81.87;99279.74;134069;1298;23094;-88
2023/03/27 08:12:30;;;;;;;;;;;;;;;1.20;81.76;99287.08;134327;1296;22472;-84
2023/03/27 08:15:33;;;;;;;;;;;;;;;1.20;81.18;99295.55;134111;1304;22438;-85
2023/03/27 08:18:35;;;;;;;;;;;;;;;1.20;80.59;99303.46;134100;1297;22450;-84
2023/03/27 08:21:57;;;;;;;;;;;;;;;1.22;80.89;99307.42;134054;1297;22499;-85
2023/03/27 08:25:03;;;;;;;;;;;;;;;1.26;79.66;99308.83;134134;1298;22455;-84
2023/03/27 08:28:07;;;;;;;;;;;;;;;1.25;79.69;99315.38;134117;1297;22424;-85
2023/03/27 08:31:19;;;;;;;;;;;;;;;1.24;79.02;99321.95;134333;1295;23307;-86
2023/03/27 08:34:23;;;;;;;;;;;;;;;1.28;79.63;99324.65;134188;1297;22483;-85
2023/03/27 08:37:47;;;;;;;;;;;;;;;;;;;;;
2023/03/27 08:41:24;;;;;;;;;;;;;;;1.39;78.42;99326.06;134114;1297;22492;-84
2023/03/27 08:48:41;;;;;;;;;;;;;;;1.46;78.46;99326.19;133958;1298;22495;-89
2023/03/27 08:52:18;;;;;;;;;;;;;;;1.51;78.63;99322.14;134134;1298;22461;-84
2023/03/27 08:55:41;;;;;;;;;;;;;;;1.61;78.84;99331.21;134028;1298;23301;-86
2023/03/27 08:58:55;;;;;;;;;;;;;;;1.75;78.40;99336.11;134064;1304;23105;-85
2023/03/27 09:02:33;;;;;;;;;;;;;;;1.83;77.58;99338.28;134054;1299;23173;-85
2023/03/27 09:05:48;;;;;;;;;;;;;;;1.83;76.72;99346.96;134066;1298;22440;-84
2023/03/27 09:09:10;;;;;;;;;;;;;;;1.80;76.55;99352.64;134085;1299;22518;-86
2023/03/27 09:13:27;;;;;;;;;;;;;;;1.78;77.13;99348.40;134152;1297;23244;-84
2023/03/27 09:16:22;;;;;;;;;;;;;;;1.79;76.00;99350.27;133977;1297;22472;-85
2023/03/27 09:19:37;;;;;;;;;;;;;;;1.81;76.37;99354.28;134074;1297;22468;-84
2023/03/27 09:22:58;;;;;;;;;;;;;;;1.83;75.19;99357.66;134068;1297;23208;-84
2023/03/27 09:26:32;;;;;;;;;;;;;;;1.82;74.98;99362.27;133354;1297;23180;-84
2023/03/27 09:29:45;;;;;;;;;;;;;;;1.87;74.14;99365.67;134250;1286;22405;-84
2023/03/27 09:34:07;;;;;;;;;;;;;;;1.95;74.13;99373.38;134153;1297;22454;-84
2023/03/27 09:37:09;;;;;;;;;;;;;;;2.05;73.44;99374.98;134127;1297;22594;-83
2023/03/27 09:41:22;;;;;;;;;;;;;;;2.10;73.46;99380.29;134142;1298;22498;-83
2023/03/27 09:44:30;;;;;;;;;;;;;;;2.16;72.38;99379.11;134029;1297;22441;-82
2023/03/27 09:52:08;;;;;;;;;;;;;;;;;;;;;
2023/03/27 10:00:35;;;;;;;;;;;;;;;2.33;70.24;99411.12;134088;1296;22484;-82
2023/03/27 10:03:29;;;;;;;;;;;;;;;2.39;70.21;99414.67;133999;1298;22475;-83
2023/03/27 10:07:02;;;;;;;;;;;;;;;;;;;;;
2023/03/27 10:11:03;;;;;;;;;;;;;;;2.49;69.74;99426.64;134134;1298;23151;-89
2023/03/27 10:14:28;;;;;;;;;;;;;;;2.62;70.82;99436.02;134054;1298;23185;-83
2023/03/27 10:17:36;;;;;;;;;;;;;;;2.75;69.87;99434.20;134040;1298;23220;-84
2023/03/27 10:21:03;;;;;;;;;;;;;;;2.82;69.24;99435.33;134058;1297;22439;-84
2023/03/27 10:24:30;;;;;;;;;;;;;;;2.87;69.33;99442.45;134059;1297;23326;-84
2023/03/27 10:28:15;;;;;;;;;;;;;;;2.91;68.26;99443.60;133527;1297;23234;-84
2023/03/27 10:32:00;;;;;;;;;;;;;;;2.84;67.66;99440.92;133252;1304;22369;-83
2023/03/27 10:35:43;;;;;;;;;;;;;;;2.79;67.51;99458.81;133164;1306;22454;-84
2023/03/27 10:39:11;;;;;;;;;;;;;;;2.82;67.72;99462.60;133123;1305;22481;-86
2023/03/27 10:42:56;;;;;;;;;;;;;;;2.85;67.48;99473.20;133162;1290;22513;-84
2023/03/27 10:46:11;;;;;;;;;;;;;;;;;;;;;
2023/03/27 10:49:59;;;;;;;;;;;;;;;;;;;;;
2023/03/27 10:53:16;;;;;;;;;;;;;;;2.74;67.35;99483.38;134036;1304;22449;-84
2023/03/27 10:56:42;;;;;;;;;;;;;;;2.61;67.93;99483.42;134055;1297;22434;-83
2023/03/27 11:00:20;;;;;;;;;;;;;;;2.56;68.53;99492.27;133932;1298;23173;-84
2023/03/27 11:03:49;;;;;;;;;;;;;;;;;;;;;
2023/03/27 11:07:04;;;;;;;;;;;;;;;2.64;67.24;99493.29;134093;1297;22459;-85
2023/03/27 11:10:16;;;;;;;;;;;;;;;2.74;64.98;99498.73;133950;1298;22447;-84
2023/03/27 11:13:40;;;;;;;;;;;;;;;2.76;63.50;99500.64;134047;1298;22476;-84
2023/03/27 11:16:44;;;;;;;;;;;;;;;2.81;64.26;99495.85;133717;1301;22444;-85
2023/03/27 11:20:11;;;;;;;;;;;;;;;2.83;64.65;99499.15;133992;1305;22431;-84
2023/03/27 11:23:48;;;;;;;;;;;;;;;;;;;;;
2023/03/27 11:27:26;;;;;;;;;;;;;;;2.85;61.75;99502.02;133927;1297;22531;-85
2023/03/27 11:30:44;;;;;;;;;;;;;;;2.87;62.76;99508.79;133951;1298;23379;-84
2023/03/27 11:34:13;;;;;;;;;;;;;;;2.88;62.28;99508.39;133933;1300;22488;-85
2023/03/27 11:37:39;;;;;;;;;;;;;;;2.88;62.33;99521.11;133965;1297;22461;-84
2023/03/27 11:41:13;;;;;;;;;;;;;;;;;;;;;
2023/03/27 11:44:33;;;;;;;;;;;;;;;2.92;61.41;99519.35;134124;1298;22518;-84
2023/03/27 11:48:11;;;;;;;;;;;;;;;3.00;63.33;99530.03;134288;1298;23245;-85
2023/03/27 11:51:14;;;;;;;;;;;;;;;3.14;63.41;99524.97;134096;1297;23163;-84
2023/03/27 11:54:28;;;;;;;;;;;;;;;3.26;62.87;99524.45;134102;1301;22439;-85
2023/03/27 11:57:54;;;;;;;;;;;;;;;3.42;61.98;99527.42;134125;1297;22455;-85
2023/03/27 12:01:18;;;;;;;;;;;;;;;3.55;60.97;99519.61;134089;1303;24005;-85
2023/03/27 12:05:06;;;;;;;;;;;;;;;3.55;60.39;99528.84;134202;1301;22440;-85
2023/03/27 12:08:23;;;;;;;;;;;;;;;3.50;60.66;99520.38;134328;1297;22440;-85
2023/03/27 12:12:08;;;;;;;;;;;;;;;3.46;60.81;99524.32;134189;1297;22435;-85
2023/03/27 12:15:40;;;;;;;;;;;;;;;3.40;61.55;99528.34;134059;1297;22473;-88
2023/03/27 12:18:44;;;;;;;;;;;;;;;3.39;61.59;99529.48;134334;1296;22481;-84
2023/03/27 12:22:25;;;;;;;;;;;;;;;3.45;61.46;99527.14;134101;1300;22432;-84
2023/03/27 12:26:00;;;;;;;;;;;;;;;3.52;60.06;99527.61;134122;1300;22642;-85
2023/03/27 12:29:24;;;;;;;;;;;;;;;3.45;60.06;99533.45;134044;1296;22462;-84
2023/03/27 12:32:41;;;;;;;;;;;;;;;3.39;60.70;99545.20;134191;1288;22432;-83
2023/03/27 12:35:50;;;;;;;;;;;;;;;3.30;60.25;99548.03;134125;1298;22463;-84
2023/03/27 12:38:56;;;;;;;;;;;;;;;3.25;59.82;99551.33;134138;1298;23178;-85
2023/03/27 12:41:58;;;;;;;;;;;;;;;3.19;60.45;99556.22;134148;1296;22454;-84
2023/03/27 12:45:36;;;;;;;;;;;;;;;3.20;61.18;99564.67;134082;1300;23288;-84
2023/03/27 12:49:06;;;;;;;;;;;;;;;;;;;;;
2023/03/27 12:52:13;;;;;;;;;;;;;;;3.46;60.01;99559.58;134154;1297;22409;-82
2023/03/27 12:55:36;;;;;;;;;;;;;;;3.57;58.40;99556.48;134232;1297;22465;-85
2023/03/27 12:59:12;;;;;;;;;;;;;;;3.65;58.59;99568.09;134159;1304;22459;-85
2023/03/27 13:02:46;;;;;;;;;;;;;;;;;;;;;
2023/03/27 13:06:21;;;;;;;;;;;;;;;4.11;58.03;99576.36;134162;1296;22466;-85
2023/03/27 13:10:38;;;;;;;;;;;;;;;4.17;56.94;99568.84;134379;1296;22444;-85
2023/03/27 13:13:27;;;;;;;;;;;;;;;4.22;57.34;99579.23;134244;1304;25600;-85
2023/03/27 13:16:49;;;;;;;;;;;;;;;4.45;57.24;99573.44;134330;1298;22421;-84
2023/03/27 13:20:16;;;;;;;;;;;;;;;4.68;57.01;99573.46;134326;1297;22465;-85
2023/03/27 13:23:35;;;;;;;;;;;;;;;4.76;57.52;99578.35;134229;1291;22428;-85
2023/03/27 13:27:07;;;;;;;;;;;;;;;;;;;;;
2023/03/27 13:30:54;;;;;;;;;;;;;;;4.63;55.65;99585.35;134107;1295;22501;-85
2023/03/27 13:35:15;;;;;;;;;;;;;;;4.90;54.53;99577.23;133264;1311;23191;-84
2023/03/27 13:38:38;;;;;;;;;;;;;;;4.90;53.70;99575.45;133283;1297;22486;-85
2023/03/27 13:41:50;;;;;;;;;;;;;;;4.76;53.26;99581.98;134031;1298;22452;-87
2023/03/27 13:45:02;;;;;;;;;;;;;;;4.64;53.73;99587.16;134084;1305;22489;-87
2023/03/27 13:48:11;;;;;;;;;;;;;;;4.63;54.19;99593.77;134029;1298;22414;-87
2023/03/27 13:51:38;;;;;;;;;;;;;;;4.75;53.78;99586.62;134126;1297;22508;-87
2023/03/27 13:55:10;;;;;;;;;;;;;;;5.01;53.49;99583.37;134100;1301;22462;-86
2023/03/27 13:59:01;;;;;;;;;;;;;;;5.08;51.70;99592.89;133988;1297;23525;-87
2023/03/27 14:02:27;;;;;;;;;;;;;;;5.05;52.53;99605.43;134123;1298;23222;-86
2023/03/27 14:05:36;;;;;;;;;;;;;;;5.20;53.14;99602.41;134006;1298;22456;-86
2023/03/27 14:08:40;;;;;;;;;;;;;;;5.43;52.47;99612.20;134051;1304;22428;-87
2023/03/27 14:12:29;;;;;;;;;;;;;;;5.63;52.87;99611.18;134128;1297;22483;-87
2023/03/27 14:16:02;;;;;;;;;;;;;;;5.68;50.90;99618.77;134125;1298;22551;-87
2023/03/27 14:19:50;;;;;;;;;;;;;;;;;;;;;
2023/03/27 14:23:13;;;;;;;;;;;;;;;5.81;51.02;99630.99;133769;1305;22468;-87
2023/03/27 14:26:35;;;;;;;;;;;;;;;5.71;50.03;99628.32;134025;1297;22448;-87
2023/03/27 14:29:39;;;;;;;;;;;;;;;5.57;50.13;99637.70;134008;1298;23150;-87
2023/03/27 14:32:42;;;;;;;;;;;;;;;5.56;50.87;99646.73;130046;1288;5434484;-87
2023/03/27 14:35:44;;;;;;;;;;;;;;;5.56;50.36;99644.83;134133;1304;22502;-87
2023/03/27 14:38:48;;;;;;;;;;;;;;;5.53;50.47;99652.27;134061;1305;23800;-86
2023/03/27 14:42:01;;;;;;;;;;;;;;;5.55;50.15;99654.05;133993;1304;22481;-87
2023/03/27 14:45:16;;;;;;;;;;;;;;;5.59;50.09;99656.48;134002;1301;22434;-88
2023/03/27 14:48:31;;;;;;;;;;;;;;;;;;;;;
2023/03/27 14:51:40;;;;;;;;;;;;;;;5.39;49.28;99667.97;133899;1300;22480;-87
2023/03/27 14:55:11;;;;;;;;;;;;;;;5.28;50.07;99669.70;134138;1297;22544;-87
2023/03/27 14:58:18;;;;;;;;;;;;;;;5.07;48.51;99675.57;134037;1297;22463;-87
2023/03/27 15:01:29;;;;;;;;;;;;;;;;;;;;;
2023/03/27 15:04:44;;;;;;;;;;;;;;;4.91;49.52;99678.06;133872;1299;22458;-86
2023/03/27 15:07:56;;;;;;;;;;;;;;;5.01;48.58;99685.41;134120;1297;22553;-88
2023/03/27 15:11:36;;;;;;;;;;;;;;;;;;;;;
2023/03/27 15:15:18;;;;;;;;;;;;;;;5.19;46.79;99682.16;134139;1297;23219;-86
2023/03/27 15:18:31;;;;;;;;;;;;;;;5.23;46.52;99692.61;134021;1298;23254;-86
2023/03/27 15:21:50;;;;;;;;;;;;;;;5.15;45.93;99701.30;134134;1298;22474;-85
2023/03/27 15:25:41;;;;;;;;;;;;;;;4.90;44.33;99711.67;134060;1297;22445;-86
2023/03/27 15:29:02;;;;;;;;;;;;;;;4.62;45.25;99721.52;133984;1297;22479;-86
2023/03/27 15:32:17;;;;;;;;;;;;;;;;;;;;;
2023/03/27 15:35:33;;;;;;;;;;;;;;;4.40;46.02;99735.17;134087;1297;22439;-84
2023/03/27 15:38:35;;;;;;;;;;;;;;;4.45;46.22;99737.59;134145;1298;22445;-85
2023/03/27 15:41:39;;;;;;;;;;;;;;;4.47;45.38;99744.05;134271;1297;22523;-84
2023/03/27 15:45:05;;;;;;;;;;;;;;;4.48;45.72;99743.23;134182;1297;22450;-85
2023/03/27 15:48:17;;;;;;;;;;;;;;;4.55;45.27;99746.17;134309;1297;22437;-88
2023/03/27 15:51:18;;;;;;;;;;;;;;;4.52;44.66;99748.00;134275;1295;22485;-87
2023/03/27 15:54:35;;;;;;;;;;;;;;;4.49;44.88;99759.15;134083;1298;22454;-83
2023/03/27 15:57:38;;;;;;;;;;;;;;;4.45;44.61;99758.23;134050;1296;22552;-85
2023/03/27 16:00:57;;;;;;;;;;;;;;;4.42;45.34;99760.64;134210;1297;22462;-89
2023/03/27 16:08:44;;;;;;;;;;;;;;;;;;;;;
2023/03/27 16:12:21;;;;;;;;;;;;;;;;;;;;;
2023/03/27 16:15:51;;;;;;;;;;;;;;;4.16;45.26;99786.38;134190;1298;22898;-89
2023/03/27 16:19:09;;;;;;;;;;;;;;;4.08;45.45;99789.07;134318;1297;23126;-90
2023/03/27 16:23:17;;;;;;;;;;;;;;;4.01;45.83;99792.85;134273;1303;22532;-90
2023/03/27 16:26:31;;;;;;;;;;;;;;;3.96;46.30;99797.87;134227;1298;22553;-87
2023/03/27 16:29:48;;;;;;;;;;;;;;;;;;;;;
2023/03/27 16:33:26;;;;;;;;;;;;;;;3.86;46.87;99813.98;134281;1297;22439;-90
2023/03/27 16:36:41;;;;;;;;;;;;;;;3.78;46.86;99817.59;134307;1297;22484;-90
2023/03/27 16:40:04;;;;;;;;;;;;;;;3.71;46.88;99827.88;134187;1296;23251;-89
2023/03/27 16:44:17;;;;;;;;;;;;;;;;;;;;;
2023/03/27 16:48:15;;;;;;;;;;;;;;;;;;;;;
2023/03/27 16:51:56;;;;;;;;;;;;;;;3.45;46.75;99843.68;133318;1303;22473;-89
2023/03/27 16:55:55;;;;;;;;;;;;;;;;;;;;;
2023/03/27 16:59:35;;;;;;;;;;;;;;;;;;;;;
2023/03/27 17:03:15;;;;;;;;;;;;;;;;;;;;;
2023/03/27 17:06:52;;;;;;;;;;;;;;;3.06;47.58;99872.40;132916;1306;23186;-91
2023/03/27 17:10:24;;;;;;;;;;;;;;;;;;;;;
2023/03/27 17:13:51;;;;;;;;;;;;;;;2.88;48.40;99889.25;133465;1302;22587;-92
2023/03/27 17:17:48;;;;;;;;;;;;;;;;;;;;;
2023/03/27 17:21:26;;;;;;;;;;;;;;;2.64;49.01;99888.51;133299;1306;22486;-92
2023/03/27 17:24:40;;;;;;;;;;;;;;;2.55;49.29;99896.90;132845;1308;22482;-88
2023/03/27 17:27:58;;;;;;;;;;;;;;;2.46;49.42;99892.70;132904;1304;22504;-89
2023/03/27 17:31:47;;;;;;;;;;;;;;;;;;;;;
2023/03/27 17:34:50;;;;;;;;;;;;;;;2.27;50.03;99897.18;133611;1300;22453;-89
2023/03/27 17:38:06;;;;;;;;;;;;;;;2.21;50.38;99903.39;133770;1300;22479;-87
2023/03/27 17:41:32;;;;;;;;;;;;;;;2.12;50.72;99907.95;133977;1296;22501;-88
2023/03/27 17:44:36;;;;;;;;;;;;;;;2.05;50.84;99912.14;134202;1297;22476;-88
2023/03/27 17:48:11;;;;;;;;;;;;;;;2.00;51.10;99915.30;134210;1297;23388;-89
2023/03/27 17:51:12;;;;;;;;;;;;;;;1.96;51.38;99918.23;134280;1298;22448;-88
2023/03/27 17:54:35;;;;;;;;;;;;;;;;;;;;;
2023/03/27 17:57:50;;;;;;;;;;;;;;;;;;;;;
2023/03/27 18:01:46;;;;;;;;;;;;;;;;;;;;;
2023/03/27 18:04:57;;;;;;;;;;;;;;;1.63;52.58;99945.99;134224;1297;22466;-82
2023/03/27 18:08:19;;;;;;;;;;;;;;;1.56;52.72;99950.21;134294;1295;22471;-85
2023/03/27 18:11:20;;;;;;;;;;;;;;;1.49;53.17;99948.27;134266;1294;22438;-87
2023/03/27 18:14:21;;;;;;;;;;;;;;;1.44;53.27;99954.04;134304;1304;23242;-82
2023/03/27 18:17:33;;;;;;;;;;;;;;;1.39;53.39;99953.20;134295;1298;22462;-87
2023/03/27 18:20:45;;;;;;;;;;;;;;;1.30;53.66;99960.05;134111;1298;22489;-86
2023/03/27 18:23:47;;;;;;;;;;;;;;;1.26;53.85;99968.20;134108;1301;22630;-85
2023/03/27 18:27:03;;;;;;;;;;;;;;;1.19;53.98;99973.43;134277;1298;22468;-85
2023/03/27 18:30:31;;;;;;;;;;;;;;;1.15;54.34;99977.25;134326;1297;22425;-84
2023/03/27 18:33:31;;;;;;;;;;;;;;;1.09;54.52;99981.45;134158;1298;22490;-83
2023/03/27 18:37:04;;;;;;;;;;;;;;;1.04;54.67;99984.92;134269;1298;22486;-85
2023/03/27 18:40:35;;;;;;;;;;;;;;;;;;;;;
2023/03/27 18:44:35;;;;;;;;;;;;;;;0.96;55.09;99984.84;134086;1304;22447;-86
2023/03/27 18:47:36;;;;;;;;;;;;;;;0.90;55.22;99982.13;134274;1297;23134;-89
2023/03/27 18:50:41;;;;;;;;;;;;;;;0.85;55.37;99988.19;134268;1298;23557;-88
2023/03/27 18:53:41;;;;;;;;;;;;;;;0.82;55.54;99987.05;134168;1298;22527;-85
2023/03/27 18:56:42;;;;;;;;;;;;;;;0.80;55.46;99984.71;134211;1298;22457;-86
2023/03/27 19:00:06;;;;;;;;;;;;;;;0.79;55.78;99979.93;134227;1297;23246;-85
2023/03/27 19:03:18;;;;;;;;;;;;;;;0.76;55.76;99981.70;134261;1297;22599;-85
2023/03/27 19:06:39;;;;;;;;;;;;;;;0.74;55.81;99981.36;134014;1297;23242;-84
2023/03/27 19:09:46;;;;;;;;;;;;;;;0.69;55.97;99982.70;134283;1296;22613;-85
2023/03/27 19:13:10;;;;;;;;;;;;;;;0.64;55.94;99984.27;134095;1298;22543;-84
2023/03/27 19:16:53;;;;;;;;;;;;;;;0.61;56.25;99986.94;134308;1297;23186;-85
2023/03/27 19:20:51;;;;;;;;;;;;;;;0.56;56.43;99987.28;134096;1296;22470;-85
2023/03/27 19:24:25;;;;;;;;;;;;;;;0.51;56.61;99988.85;134083;1295;22471;-85
2023/03/27 19:27:28;;;;;;;;;;;;;;;0.44;56.71;99996.48;134296;1297;23242;-85
2023/03/27 19:30:28;;;;;;;;;;;;;;;0.34;57.01;99992.80;134229;1297;22456;-85
2023/03/27 19:33:39;;;;;;;;;;;;;;;0.25;57.07;99995.46;134351;1297;22549;-84
2023/03/27 19:37:07;;;;;;;;;;;;;;;;;;;;;
2023/03/27 19:40:09;;;;;;;;;;;;;;;0.07;57.15;99999.48;134152;1303;22470;-84
2023/03/27 19:43:10;;;;;;;;;;;;;;;-0.02;57.54;99999.52;134215;1298;22478;-83
2023/03/27 19:46:23;;;;;;;;;;;;;;;-0.08;57.60;100001.85;134263;1297;22461;-88
2023/03/27 19:49:41;;;;;;;;;;;;;;;-0.16;58.16;100003.45;134205;1295;23164;-84
2023/03/27 19:53:00;;;;;;;;;;;;;;;-0.23;58.19;100005.65;134390;1296;22432;-83